Sunday, August 19, 2018, 1:55 PM EDT
Back to Local

KSEG, Selinsgrove Penn Valley Airport

Location: Selinsgrove, PA, United States Lat: 40.817
Local Time: 1:55 PM EDT (17:55 GMT) Lon: -76.867
Time Zone: US/Eastern Elev: 449 ft

Show me the last for .
Show Decoded

2018-08-19 12:53 METAR KSEG 191653Z AUTO 04005KT 10SM OVC019 22/18 A3001 RMK AO2 SLP158 T02170183
                 =
2018-08-19 11:53 METAR KSEG 191553Z AUTO 02005KT 10SM OVC019 22/18 A3000 RMK AO2 SLP154 T02170183
                 =
2018-08-19 10:53 METAR KSEG 191453Z AUTO 35005KT 10SM OVC019 21/18 A3000 RMK AO2 SLP155 60003
                 T02060178 51007 =
2018-08-19 10:05 METAR KSEG 191405Z AUTO 33006KT 10SM SCT008 OVC021 21/18 A3000 RMK AO2 T02060183
                 =
2018-08-19 09:53 METAR KSEG 191353Z AUTO 34006KT 8SM BKN007 OVC017 19/18 A2999 RMK AO2 RAB24E38
                 SLP154 P0001 T01940183 =
2018-08-19 09:45 METAR KSEG 191345Z AUTO 33005KT 5SM BR BKN007 OVC017 19/18 A2999 RMK AO2
                 RAB24E38 P0001 T01940183 =
2018-08-19 09:03 METAR KSEG 191303Z AUTO 34004KT 3SM BR FEW007 BKN014 OVC042 19/18 A2999 RMK AO2
                 T01890178 =
2018-08-19 08:53 METAR KSEG 191253Z AUTO 36004KT 4SM BR BKN008 OVC014 19/18 A2999 RMK AO2 RAE26
                 CIG 005V010 SLP152 P0002 T01890178 =
2018-08-19 08:30 METAR KSEG 191230Z AUTO 35004KT 4SM BR BKN006 OVC011 19/18 A2998 RMK AO2 RAE26
                 CIG 004V008 P0002 T01890178 =
2018-08-19 08:22 METAR KSEG 191222Z AUTO 33003KT 2 1/2SM -RA BR BKN008 OVC013 18/18 A2998 RMK AO2
                 P0002 T01830178 =
2018-08-19 07:53 METAR KSEG 191153Z AUTO 34003KT 1 1/2SM -RA BR BKN007 OVC014 18/18 A2998 RMK AO2
                 RAB30 SLP148 P0002 60008 70017 T01830178 10200 20183 53018 =
2018-08-19 07:38 METAR KSEG 191138Z AUTO 01004KT 1 3/4SM -RA BR BKN008 OVC015 18/18 A2997 RMK AO2
                 RAB30 CIG 005V009 P0001 T01830178 =
2018-08-19 07:29 METAR KSEG 191129Z AUTO VRB03KT 4SM BR BKN008 OVC017 18/18 A2997 RMK AO2 CIG
                 006V011 T01830178 =
2018-08-19 06:53 METAR KSEG 191053Z AUTO 00000KT 3SM BR FEW007 OVC021 18/18 A2995 RMK AO2 RAE51
                 SLP141 P0004 T01830178 =
2018-08-19 06:33 METAR KSEG 191033Z AUTO 00000KT 2 1/2SM -RA BR OVC019 18/18 A2995 RMK AO2 P0003
                 T01830178 =
2018-08-19 05:53 METAR KSEG 190953Z AUTO 00000KT 3SM -RA BR OVC018 19/18 A2994 RMK AO2 RAB49
                 SLP135 P0001 T01890178 =
2018-08-19 04:53 METAR KSEG 190853Z AUTO 08003KT 4SM BR FEW022 BKN028 OVC037 18/18 A2992 RMK AO2
                 RAB27E49 SLP130 P0001 60001 T01830178 51003 =
2018-08-19 04:50 METAR KSEG 190850Z AUTO 00000KT 5SM BR FEW022 BKN028 OVC037 19/18 A2992 RMK AO2
                 RAB27E49 P0000 =
2018-08-19 04:12 METAR KSEG 190812Z AUTO 04004KT 10SM SCT025 OVC037 19/17 A2991 RMK AO2 T01940172
                 =
2018-08-19 03:53 METAR KSEG 190753Z AUTO 02003KT 10SM BKN026 OVC039 20/17 A2992 RMK AO2 SLP128
                 T02000167 =
2018-08-19 02:53 METAR KSEG 190653Z AUTO 35004KT 10SM OVC046 20/17 A2991 RMK AO2 SLP126 T02000167
                 =
2018-08-19 01:53 METAR KSEG 190553Z AUTO 33005KT 10SM OVC047 20/17 A2991 RMK AO2 SLP125 T02000167
                 10228 20200 57003 =
2018-08-19 00:53 METAR KSEG 190453Z AUTO 34005KT 10SM OVC046 21/17 A2991 RMK AO2 SLP126 T02060167
                 402940200 =
2018-08-18 23:53 METAR KSEG 190353Z AUTO 33004KT 10SM OVC045 20/17 A2991 RMK AO2 SLP126 T02000172
                 =
2018-08-18 22:53 METAR KSEG 190253Z AUTO 03006KT 10SM BKN047 BKN085 21/17 A2992 RMK AO2 SLP127
                 T02060167 51017 =
2018-08-18 21:53 METAR KSEG 190153Z AUTO 36006KT 10SM OVC045 21/17 A2992 RMK AO2 SLP127 T02110167
                 =
2018-08-18 20:53 METAR KSEG 190053Z AUTO 36009KT 10SM FEW044 OVC065 22/17 A2989 RMK AO2 SLP118
                 T02220167 =
2018-08-18 19:53 METAR KSEG 182353Z AUTO 35007KT 10SM FEW041 BKN050 23/19 A2987 RMK AO2 SLP111
                 60009 T02280189 10294 20228 53014 =
2018-08-18 18:53 METAR KSEG 182253Z AUTO 34004KT 10SM OVC070 24/21 A2985 RMK AO2 SLP104 T02440206
                 =
2018-08-18 17:53 METAR KSEG 182153Z AUTO 36006KT 10SM BKN045 BKN055 24/19 A2984 RMK AO2 SLP102
                 T02440189 =
2018-08-18 16:53 METAR KSEG 182053Z AUTO 03007KT 10SM FEW022 FEW044 SCT085 26/22 A2983 RMK AO2
                 RAE10 SLP097 P0002 60009 T02560217 56002 =
2018-08-18 15:59 METAR KSEG 181959Z AUTO 04005KT 3SM RA BR BKN038 BKN050 OVC075 23/21 A2984 RMK
                 AO2 P0002 T02330211 =
2018-08-18 15:53 METAR KSEG 181953Z AUTO 06005KT 1 3/4SM +RA BR BKN036 BKN050 OVC075 23/21 A2984
                 RMK AO2 RAB43 SLP099 P0007 T02280211 =
2018-08-18 14:53 METAR KSEG 181853Z AUTO VRB05KT 10SM FEW042 FEW085 29/21 A2982 RMK AO2 SLP094
                 T02890211 =

Support USWX by starting your Amazon purchase here.